sensor_id;sensor_type;location;lat;lon;timestamp;P1;durP1;ratioP1;P2;durP2;ratioP2
59770;SDS011;45649;53.014;6.600;2022-07-25T00:00:30;3.07;;;2.40;;
59770;SDS011;45649;53.014;6.600;2022-07-25T00:02:56;2.57;;;2.37;;
59770;SDS011;45649;53.014;6.600;2022-07-25T00:05:22;2.63;;;2.40;;
59770;SDS011;45649;53.014;6.600;2022-07-25T00:07:48;3.00;;;2.77;;
59770;SDS011;45649;53.014;6.600;2022-07-25T00:10:14;2.70;;;2.43;;
59770;SDS011;45649;53.014;6.600;2022-07-25T00:12:40;2.73;;;2.57;;
59770;SDS011;45649;53.014;6.600;2022-07-25T00:15:06;2.57;;;2.37;;
59770;SDS011;45649;53.014;6.600;2022-07-25T00:17:32;3.07;;;2.87;;
59770;SDS011;45649;53.014;6.600;2022-07-25T00:19:58;3.00;;;2.90;;
59770;SDS011;45649;53.014;6.600;2022-07-25T00:22:24;3.10;;;2.90;;
59770;SDS011;45649;53.014;6.600;2022-07-25T00:24:50;3.37;;;2.93;;
59770;SDS011;45649;53.014;6.600;2022-07-25T00:27:16;3.40;;;3.20;;
59770;SDS011;45649;53.014;6.600;2022-07-25T00:29:42;3.57;;;3.27;;
59770;SDS011;45649;53.014;6.600;2022-07-25T00:32:08;2.97;;;2.77;;
59770;SDS011;45649;53.014;6.600;2022-07-25T00:34:34;3.37;;;3.17;;
59770;SDS011;45649;53.014;6.600;2022-07-25T00:37:00;3.40;;;3.20;;
59770;SDS011;45649;53.014;6.600;2022-07-25T00:39:25;3.47;;;3.27;;
59770;SDS011;45649;53.014;6.600;2022-07-25T00:41:52;3.90;;;3.60;;
59770;SDS011;45649;53.014;6.600;2022-07-25T00:44:24;3.80;;;3.60;;
59770;SDS011;45649;53.014;6.600;2022-07-25T00:46:53;4.20;;;3.90;;
59770;SDS011;45649;53.014;6.600;2022-07-25T00:49:19;3.50;;;3.30;;
59770;SDS011;45649;53.014;6.600;2022-07-25T00:51:45;3.97;;;3.67;;
59770;SDS011;45649;53.014;6.600;2022-07-25T00:54:11;3.90;;;3.50;;
59770;SDS011;45649;53.014;6.600;2022-07-25T00:56:38;3.80;;;3.50;;
59770;SDS011;45649;53.014;6.600;2022-07-25T00:59:04;4.73;;;3.80;;
59770;SDS011;45649;53.014;6.600;2022-07-25T01:01:30;4.20;;;3.90;;
59770;SDS011;45649;53.014;6.600;2022-07-25T01:03:56;4.77;;;4.30;;
59770;SDS011;45649;53.014;6.600;2022-07-25T01:06:22;4.30;;;4.10;;
59770;SDS011;45649;53.014;6.600;2022-07-25T01:08:48;4.50;;;4.10;;
59770;SDS011;45649;53.014;6.600;2022-07-25T01:11:14;4.80;;;4.40;;
59770;SDS011;45649;53.014;6.600;2022-07-25T01:13:40;5.27;;;4.80;;
59770;SDS011;45649;53.014;6.600;2022-07-25T01:16:06;5.03;;;4.63;;
59770;SDS011;45649;53.014;6.600;2022-07-25T01:18:32;5.20;;;4.90;;
59770;SDS011;45649;53.014;6.600;2022-07-25T01:20:58;4.73;;;4.40;;
59770;SDS011;45649;53.014;6.600;2022-07-25T01:23:24;5.07;;;4.77;;
59770;SDS011;45649;53.014;6.600;2022-07-25T01:25:51;5.63;;;5.13;;
59770;SDS011;45649;53.014;6.600;2022-07-25T01:28:17;4.83;;;4.53;;
59770;SDS011;45649;53.014;6.600;2022-07-25T01:30:43;5.70;;;5.20;;
59770;SDS011;45649;53.014;6.600;2022-07-25T01:33:09;5.23;;;4.83;;
59770;SDS011;45649;53.014;6.600;2022-07-25T01:35:39;5.93;;;5.40;;
59770;SDS011;45649;53.014;6.600;2022-07-25T01:38:07;5.83;;;5.43;;
59770;SDS011;45649;53.014;6.600;2022-07-25T01:40:33;5.27;;;4.97;;
59770;SDS011;45649;53.014;6.600;2022-07-25T01:43:00;6.10;;;5.70;;
59770;SDS011;45649;53.014;6.600;2022-07-25T01:45:25;5.90;;;5.50;;
59770;SDS011;45649;53.014;6.600;2022-07-25T01:47:51;5.60;;;5.20;;
59770;SDS011;45649;53.014;6.600;2022-07-25T01:50:17;6.63;;;6.03;;
59770;SDS011;45649;53.014;6.600;2022-07-25T01:52:43;5.87;;;5.47;;
59770;SDS011;45649;53.014;6.600;2022-07-25T01:55:09;5.97;;;5.57;;
59770;SDS011;45649;53.014;6.600;2022-07-25T01:57:35;6.07;;;5.57;;
59770;SDS011;45649;53.014;6.600;2022-07-25T02:00:01;5.83;;;5.37;;
59770;SDS011;45649;53.014;6.600;2022-07-25T02:02:28;6.03;;;5.63;;
59770;SDS011;45649;53.014;6.600;2022-07-25T02:04:55;5.43;;;5.13;;
59770;SDS011;45649;53.014;6.600;2022-07-25T02:07:21;6.37;;;5.97;;
59770;SDS011;45649;53.014;6.600;2022-07-25T02:09:47;6.83;;;6.13;;
59770;SDS011;45649;53.014;6.600;2022-07-25T02:12:13;6.60;;;6.00;;
59770;SDS011;45649;53.014;6.600;2022-07-25T02:14:39;6.83;;;6.40;;
59770;SDS011;45649;53.014;6.600;2022-07-25T02:17:05;6.65;;;6.25;;
59770;SDS011;45649;53.014;6.600;2022-07-25T02:19:31;7.13;;;6.43;;
59770;SDS011;45649;53.014;6.600;2022-07-25T02:21:57;6.80;;;6.30;;
59770;SDS011;45649;53.014;6.600;2022-07-25T02:24:23;7.20;;;6.60;;
59770;SDS011;45649;53.014;6.600;2022-07-25T02:26:48;7.03;;;6.60;;
59770;SDS011;45649;53.014;6.600;2022-07-25T02:29:14;7.73;;;7.07;;
59770;SDS011;45649;53.014;6.600;2022-07-25T02:31:40;7.07;;;6.37;;
59770;SDS011;45649;53.014;6.600;2022-07-25T02:34:06;7.33;;;6.73;;
59770;SDS011;45649;53.014;6.600;2022-07-25T02:36:32;7.90;;;7.20;;
59770;SDS011;45649;53.014;6.600;2022-07-25T02:38:59;7.40;;;6.90;;
59770;SDS011;45649;53.014;6.600;2022-07-25T02:41:25;7.77;;;7.17;;
59770;SDS011;45649;53.014;6.600;2022-07-25T02:43:50;7.47;;;6.87;;
59770;SDS011;45649;53.014;6.600;2022-07-25T02:46:16;7.97;;;7.10;;
59770;SDS011;45649;53.014;6.600;2022-07-25T02:48:42;7.60;;;7.00;;
59770;SDS011;45649;53.014;6.600;2022-07-25T02:51:07;7.50;;;6.93;;
59770;SDS011;45649;53.014;6.600;2022-07-25T02:53:34;7.50;;;6.93;;
59770;SDS011;45649;53.014;6.600;2022-07-25T02:55:59;8.23;;;7.53;;
59770;SDS011;45649;53.014;6.600;2022-07-25T02:58:25;7.63;;;7.00;;
59770;SDS011;45649;53.014;6.600;2022-07-25T03:00:51;7.77;;;7.27;;
59770;SDS011;45649;53.014;6.600;2022-07-25T03:03:17;7.60;;;6.93;;
59770;SDS011;45649;53.014;6.600;2022-07-25T03:05:44;8.47;;;7.83;;
59770;SDS011;45649;53.014;6.600;2022-07-25T03:08:10;8.27;;;7.67;;
59770;SDS011;45649;53.014;6.600;2022-07-25T03:10:36;8.33;;;7.50;;
59770;SDS011;45649;53.014;6.600;2022-07-25T03:13:02;7.60;;;7.00;;
59770;SDS011;45649;53.014;6.600;2022-07-25T03:15:27;6.80;;;6.30;;
59770;SDS011;45649;53.014;6.600;2022-07-25T03:17:53;6.70;;;6.20;;
59770;SDS011;45649;53.014;6.600;2022-07-25T03:20:19;7.10;;;6.50;;
59770;SDS011;45649;53.014;6.600;2022-07-25T03:22:45;7.37;;;6.77;;
59770;SDS011;45649;53.014;6.600;2022-07-25T03:25:11;7.67;;;7.00;;
59770;SDS011;45649;53.014;6.600;2022-07-25T03:27:37;7.80;;;7.20;;
59770;SDS011;45649;53.014;6.600;2022-07-25T03:30:04;7.90;;;7.30;;
59770;SDS011;45649;53.014;6.600;2022-07-25T03:32:31;8.00;;;7.40;;
59770;SDS011;45649;53.014;6.600;2022-07-25T03:34:58;8.53;;;7.93;;
59770;SDS011;45649;53.014;6.600;2022-07-25T03:37:24;8.20;;;7.40;;
59770;SDS011;45649;53.014;6.600;2022-07-25T03:39:49;9.10;;;8.40;;
59770;SDS011;45649;53.014;6.600;2022-07-25T03:42:15;8.80;;;8.07;;
59770;SDS011;45649;53.014;6.600;2022-07-25T03:44:41;9.13;;;8.47;;
59770;SDS011;45649;53.014;6.600;2022-07-25T03:47:07;9.03;;;7.97;;
59770;SDS011;45649;53.014;6.600;2022-07-25T03:49:33;7.90;;;7.37;;
59770;SDS011;45649;53.014;6.600;2022-07-25T03:51:59;9.30;;;8.50;;
59770;SDS011;45649;53.014;6.600;2022-07-25T03:54:25;9.07;;;8.17;;
59770;SDS011;45649;53.014;6.600;2022-07-25T03:56:51;9.20;;;8.47;;
59770;SDS011;45649;53.014;6.600;2022-07-25T03:59:18;9.23;;;8.43;;
59770;SDS011;45649;53.014;6.600;2022-07-25T04:01:46;9.13;;;8.33;;
59770;SDS011;45649;53.014;6.600;2022-07-25T04:04:13;9.37;;;8.67;;
59770;SDS011;45649;53.014;6.600;2022-07-25T04:06:40;9.53;;;8.73;;
59770;SDS011;45649;53.014;6.600;2022-07-25T04:09:06;9.17;;;8.37;;
59770;SDS011;45649;53.014;6.600;2022-07-25T04:11:33;9.80;;;8.90;;
59770;SDS011;45649;53.014;6.600;2022-07-25T04:14:00;9.50;;;8.60;;
59770;SDS011;45649;53.014;6.600;2022-07-25T04:16:26;8.27;;;7.63;;
59770;SDS011;45649;53.014;6.600;2022-07-25T04:18:52;10.27;;;9.27;;
59770;SDS011;45649;53.014;6.600;2022-07-25T04:21:18;9.40;;;8.50;;
59770;SDS011;45649;53.014;6.600;2022-07-25T04:23:44;10.03;;;9.23;;
59770;SDS011;45649;53.014;6.600;2022-07-25T04:26:10;9.47;;;8.77;;
59770;SDS011;45649;53.014;6.600;2022-07-25T04:28:37;9.97;;;9.17;;
59770;SDS011;45649;53.014;6.600;2022-07-25T04:31:03;9.33;;;8.53;;
59770;SDS011;45649;53.014;6.600;2022-07-25T04:33:29;10.27;;;9.47;;
59770;SDS011;45649;53.014;6.600;2022-07-25T04:35:55;11.17;;;10.00;;
59770;SDS011;45649;53.014;6.600;2022-07-25T04:38:20;10.03;;;9.23;;
59770;SDS011;45649;53.014;6.600;2022-07-25T04:40:46;11.00;;;10.17;;
59770;SDS011;45649;53.014;6.600;2022-07-25T04:43:13;10.77;;;9.70;;
59770;SDS011;45649;53.014;6.600;2022-07-25T04:45:38;11.30;;;10.30;;
59770;SDS011;45649;53.014;6.600;2022-07-25T04:48:05;11.03;;;10.10;;
59770;SDS011;45649;53.014;6.600;2022-07-25T04:50:31;11.10;;;10.10;;
59770;SDS011;45649;53.014;6.600;2022-07-25T04:52:56;11.73;;;10.73;;
59770;SDS011;45649;53.014;6.600;2022-07-25T04:55:22;11.43;;;10.43;;
59770;SDS011;45649;53.014;6.600;2022-07-25T04:57:48;11.57;;;10.47;;
59770;SDS011;45649;53.014;6.600;2022-07-25T05:00:14;10.90;;;10.10;;
59770;SDS011;45649;53.014;6.600;2022-07-25T05:02:40;10.93;;;10.03;;
59770;SDS011;45649;53.014;6.600;2022-07-25T05:05:07;10.43;;;9.60;;
59770;SDS011;45649;53.014;6.600;2022-07-25T05:07:36;11.10;;;10.10;;
59770;SDS011;45649;53.014;6.600;2022-07-25T05:10:02;11.17;;;10.27;;
59770;SDS011;45649;53.014;6.600;2022-07-25T05:12:29;11.97;;;10.80;;
59770;SDS011;45649;53.014;6.600;2022-07-25T05:14:55;11.93;;;10.93;;
59770;SDS011;45649;53.014;6.600;2022-07-25T05:17:21;11.60;;;10.60;;
59770;SDS011;45649;53.014;6.600;2022-07-25T05:19:47;12.52;;;11.50;;
59770;SDS011;45649;53.014;6.600;2022-07-25T05:22:12;11.63;;;10.73;;
59770;SDS011;45649;53.014;6.600;2022-07-25T05:24:38;12.03;;;11.03;;
59770;SDS011;45649;53.014;6.600;2022-07-25T05:27:04;13.10;;;12.00;;
59770;SDS011;45649;53.014;6.600;2022-07-25T05:29:31;12.03;;;11.03;;
59770;SDS011;45649;53.014;6.600;2022-07-25T05:31:56;12.67;;;11.57;;
59770;SDS011;45649;53.014;6.600;2022-07-25T05:34:23;12.90;;;11.67;;
59770;SDS011;45649;53.014;6.600;2022-07-25T05:36:49;12.73;;;11.53;;
59770;SDS011;45649;53.014;6.600;2022-07-25T05:39:14;11.23;;;10.13;;
59770;SDS011;45649;53.014;6.600;2022-07-25T05:41:40;13.20;;;12.10;;
59770;SDS011;45649;53.014;6.600;2022-07-25T05:44:06;11.33;;;10.33;;
59770;SDS011;45649;53.014;6.600;2022-07-25T05:46:32;11.93;;;10.93;;
59770;SDS011;45649;53.014;6.600;2022-07-25T05:48:58;13.07;;;11.83;;
59770;SDS011;45649;53.014;6.600;2022-07-25T05:51:24;12.70;;;11.60;;
59770;SDS011;45649;53.014;6.600;2022-07-25T05:53:49;11.93;;;10.73;;
59770;SDS011;45649;53.014;6.600;2022-07-25T05:56:15;12.77;;;11.67;;
59770;SDS011;45649;53.014;6.600;2022-07-25T05:58:41;12.37;;;11.27;;
59770;SDS011;45649;53.014;6.600;2022-07-25T06:01:10;11.03;;;10.03;;
59770;SDS011;45649;53.014;6.600;2022-07-25T06:03:36;12.23;;;11.13;;
59770;SDS011;45649;53.014;6.600;2022-07-25T06:06:02;13.30;;;12.20;;
59770;SDS011;45649;53.014;6.600;2022-07-25T06:08:29;12.00;;;10.83;;
59770;SDS011;45649;53.014;6.600;2022-07-25T06:10:56;12.27;;;11.17;;
59770;SDS011;45649;53.014;6.600;2022-07-25T06:13:23;12.87;;;11.77;;
59770;SDS011;45649;53.014;6.600;2022-07-25T06:15:49;12.30;;;11.20;;
59770;SDS011;45649;53.014;6.600;2022-07-25T06:18:15;12.37;;;11.17;;
59770;SDS011;45649;53.014;6.600;2022-07-25T06:20:41;12.63;;;11.40;;
59770;SDS011;45649;53.014;6.600;2022-07-25T06:23:07;10.87;;;9.87;;
59770;SDS011;45649;53.014;6.600;2022-07-25T06:25:32;11.43;;;10.50;;
59770;SDS011;45649;53.014;6.600;2022-07-25T06:27:58;11.83;;;10.83;;
59770;SDS011;45649;53.014;6.600;2022-07-25T06:30:26;10.50;;;9.67;;
59770;SDS011;45649;53.014;6.600;2022-07-25T06:32:52;9.97;;;9.13;;
59770;SDS011;45649;53.014;6.600;2022-07-25T06:35:21;10.60;;;9.63;;
59770;SDS011;45649;53.014;6.600;2022-07-25T06:37:47;10.50;;;9.70;;
59770;SDS011;45649;53.014;6.600;2022-07-25T06:40:13;11.17;;;9.87;;
59770;SDS011;45649;53.014;6.600;2022-07-25T06:42:40;10.27;;;9.47;;
59770;SDS011;45649;53.014;6.600;2022-07-25T06:45:07;10.80;;;9.90;;
59770;SDS011;45649;53.014;6.600;2022-07-25T06:47:34;11.43;;;10.43;;
59770;SDS011;45649;53.014;6.600;2022-07-25T06:50:01;10.33;;;9.33;;
59770;SDS011;45649;53.014;6.600;2022-07-25T06:52:28;11.50;;;10.37;;
59770;SDS011;45649;53.014;6.600;2022-07-25T06:54:54;10.63;;;9.60;;
59770;SDS011;45649;53.014;6.600;2022-07-25T06:57:20;9.57;;;8.87;;
59770;SDS011;45649;53.014;6.600;2022-07-25T06:59:46;11.30;;;10.20;;
59770;SDS011;45649;53.014;6.600;2022-07-25T07:02:12;10.10;;;9.40;;
59770;SDS011;45649;53.014;6.600;2022-07-25T07:04:38;10.00;;;9.10;;
59770;SDS011;45649;53.014;6.600;2022-07-25T07:07:04;10.37;;;9.50;;
59770;SDS011;45649;53.014;6.600;2022-07-25T07:09:30;12.20;;;11.17;;
59770;SDS011;45649;53.014;6.600;2022-07-25T07:11:56;10.60;;;9.70;;
59770;SDS011;45649;53.014;6.600;2022-07-25T07:14:22;10.03;;;9.17;;
59770;SDS011;45649;53.014;6.600;2022-07-25T07:16:48;10.57;;;9.63;;
59770;SDS011;45649;53.014;6.600;2022-07-25T07:19:14;10.67;;;9.77;;
59770;SDS011;45649;53.014;6.600;2022-07-25T07:21:40;10.83;;;9.80;;
59770;SDS011;45649;53.014;6.600;2022-07-25T07:24:06;9.53;;;8.73;;
59770;SDS011;45649;53.014;6.600;2022-07-25T07:26:33;10.27;;;9.43;;
59770;SDS011;45649;53.014;6.600;2022-07-25T07:28:59;11.03;;;10.03;;
59770;SDS011;45649;53.014;6.600;2022-07-25T07:31:26;10.77;;;9.93;;
59770;SDS011;45649;53.014;6.600;2022-07-25T07:33:52;11.40;;;10.20;;
59770;SDS011;45649;53.014;6.600;2022-07-25T07:36:18;10.87;;;9.97;;
59770;SDS011;45649;53.014;6.600;2022-07-25T07:38:44;12.48;;;11.30;;
59770;SDS011;45649;53.014;6.600;2022-07-25T07:41:10;10.73;;;9.70;;
59770;SDS011;45649;53.014;6.600;2022-07-25T07:43:37;11.17;;;10.17;;
59770;SDS011;45649;53.014;6.600;2022-07-25T07:46:03;10.97;;;9.97;;
59770;SDS011;45649;53.014;6.600;2022-07-25T07:48:29;10.63;;;9.73;;
59770;SDS011;45649;53.014;6.600;2022-07-25T07:50:55;11.23;;;10.23;;
59770;SDS011;45649;53.014;6.600;2022-07-25T07:53:21;10.97;;;10.00;;
59770;SDS011;45649;53.014;6.600;2022-07-25T07:56:07;11.33;;;10.33;;
59770;SDS011;45649;53.014;6.600;2022-07-25T07:58:33;10.80;;;9.70;;
59770;SDS011;45649;53.014;6.600;2022-07-25T08:00:59;10.53;;;9.60;;
59770;SDS011;45649;53.014;6.600;2022-07-25T08:03:25;10.03;;;9.03;;
59770;SDS011;45649;53.014;6.600;2022-07-25T08:05:51;9.30;;;8.40;;
59770;SDS011;45649;53.014;6.600;2022-07-25T08:08:18;9.47;;;8.60;;
59770;SDS011;45649;53.014;6.600;2022-07-25T08:10:45;8.20;;;7.40;;
59770;SDS011;45649;53.014;6.600;2022-07-25T08:13:12;7.87;;;7.27;;
59770;SDS011;45649;53.014;6.600;2022-07-25T08:15:40;7.63;;;6.93;;
59770;SDS011;45649;53.014;6.600;2022-07-25T08:18:07;6.63;;;6.13;;
59770;SDS011;45649;53.014;6.600;2022-07-25T08:20:34;5.93;;;5.43;;
59770;SDS011;45649;53.014;6.600;2022-07-25T08:23:00;6.30;;;5.70;;
59770;SDS011;45649;53.014;6.600;2022-07-25T08:25:26;6.10;;;5.60;;
59770;SDS011;45649;53.014;6.600;2022-07-25T08:27:52;5.20;;;4.70;;
59770;SDS011;45649;53.014;6.600;2022-07-25T08:30:18;5.83;;;5.27;;
59770;SDS011;45649;53.014;6.600;2022-07-25T08:32:48;5.37;;;4.97;;
59770;SDS011;45649;53.014;6.600;2022-07-25T08:35:19;6.00;;;5.43;;
59770;SDS011;45649;53.014;6.600;2022-07-25T08:37:46;5.40;;;5.00;;
59770;SDS011;45649;53.014;6.600;2022-07-25T08:40:13;6.00;;;5.50;;
59770;SDS011;45649;53.014;6.600;2022-07-25T08:42:40;5.80;;;5.30;;
59770;SDS011;45649;53.014;6.600;2022-07-25T08:45:07;5.07;;;4.67;;
59770;SDS011;45649;53.014;6.600;2022-07-25T08:47:35;5.50;;;5.00;;
59770;SDS011;45649;53.014;6.600;2022-07-25T08:50:05;5.20;;;4.80;;
59770;SDS011;45649;53.014;6.600;2022-07-25T08:52:33;5.33;;;4.90;;
59770;SDS011;45649;53.014;6.600;2022-07-25T08:55:04;4.63;;;4.27;;
59770;SDS011;45649;53.014;6.600;2022-07-25T08:57:31;5.17;;;4.77;;
59770;SDS011;45649;53.014;6.600;2022-07-25T08:59:58;4.37;;;3.97;;
59770;SDS011;45649;53.014;6.600;2022-07-25T09:02:24;4.97;;;4.50;;
59770;SDS011;45649;53.014;6.600;2022-07-25T09:04:51;5.40;;;4.50;;
59770;SDS011;45649;53.014;6.600;2022-07-25T09:07:27;5.40;;;4.33;;
59770;SDS011;45649;53.014;6.600;2022-07-25T09:09:54;5.13;;;4.73;;
59770;SDS011;45649;53.014;6.600;2022-07-25T09:12:24;4.77;;;4.40;;
59770;SDS011;45649;53.014;6.600;2022-07-25T09:14:51;4.47;;;4.17;;
59770;SDS011;45649;53.014;6.600;2022-07-25T09:17:17;5.40;;;4.23;;
59770;SDS011;45649;53.014;6.600;2022-07-25T09:19:50;3.50;;;3.30;;
59770;SDS011;45649;53.014;6.600;2022-07-25T09:22:17;3.27;;;2.97;;
59770;SDS011;45649;53.014;6.600;2022-07-25T09:24:44;3.07;;;2.87;;
59770;SDS011;45649;53.014;6.600;2022-07-25T09:27:10;3.00;;;2.80;;
59770;SDS011;45649;53.014;6.600;2022-07-25T09:29:37;3.00;;;2.67;;
59770;SDS011;45649;53.014;6.600;2022-07-25T09:32:16;3.00;;;2.80;;
59770;SDS011;45649;53.014;6.600;2022-07-25T09:34:44;2.90;;;2.70;;
59770;SDS011;45649;53.014;6.600;2022-07-25T09:37:13;2.90;;;2.70;;
59770;SDS011;45649;53.014;6.600;2022-07-25T09:39:41;5.00;;;2.73;;
59770;SDS011;45649;53.014;6.600;2022-07-25T09:42:19;2.60;;;2.40;;
59770;SDS011;45649;53.014;6.600;2022-07-25T09:45:09;3.00;;;2.53;;
59770;SDS011;45649;53.014;6.600;2022-07-25T09:47:50;2.73;;;2.47;;
59770;SDS011;45649;53.014;6.600;2022-07-25T09:50:21;2.40;;;2.30;;
59770;SDS011;45649;53.014;6.600;2022-07-25T09:52:50;4.37;;;2.27;;
59770;SDS011;45649;53.014;6.600;2022-07-25T09:55:17;4.10;;;2.40;;
59770;SDS011;45649;53.014;6.600;2022-07-25T09:57:44;2.43;;;2.17;;
59770;SDS011;45649;53.014;6.600;2022-07-25T10:00:12;2.30;;;2.10;;
59770;SDS011;45649;53.014;6.600;2022-07-25T10:02:46;2.10;;;1.87;;
59770;SDS011;45649;53.014;6.600;2022-07-25T10:07:51;1.87;;;1.77;;
59770;SDS011;45649;53.014;6.600;2022-07-25T10:10:37;2.20;;;2.10;;
59770;SDS011;45649;53.014;6.600;2022-07-25T10:13:14;2.00;;;1.90;;
59770;SDS011;45649;53.014;6.600;2022-07-25T10:15:47;2.03;;;1.93;;
59770;SDS011;45649;53.014;6.600;2022-07-25T10:18:15;3.63;;;2.20;;
59770;SDS011;45649;53.014;6.600;2022-07-25T10:20:43;2.00;;;1.90;;
59770;SDS011;45649;53.014;6.600;2022-07-25T10:23:43;5.40;;;1.97;;
59770;SDS011;45649;53.014;6.600;2022-07-25T10:26:08;3.13;;;1.90;;
59770;SDS011;45649;53.014;6.600;2022-07-25T10:31:22;1.60;;;1.50;;
59770;SDS011;45649;53.014;6.600;2022-07-25T10:33:57;2.30;;;1.53;;
59770;SDS011;45649;53.014;6.600;2022-07-25T10:36:26;2.07;;;1.80;;
59770;SDS011;45649;53.014;6.600;2022-07-25T10:39:06;1.50;;;1.40;;
59770;SDS011;45649;53.014;6.600;2022-07-25T10:41:37;1.70;;;1.60;;
59770;SDS011;45649;53.014;6.600;2022-07-25T10:44:04;1.60;;;1.50;;
59770;SDS011;45649;53.014;6.600;2022-07-25T10:46:38;2.70;;;1.40;;
59770;SDS011;45649;53.014;6.600;2022-07-25T10:49:07;1.80;;;1.40;;
59770;SDS011;45649;53.014;6.600;2022-07-25T10:51:56;1.70;;;1.60;;
59770;SDS011;45649;53.014;6.600;2022-07-25T10:54:31;2.53;;;1.80;;
59770;SDS011;45649;53.014;6.600;2022-07-25T10:57:02;2.40;;;1.97;;
59770;SDS011;45649;53.014;6.600;2022-07-25T10:59:38;1.83;;;1.73;;
59770;SDS011;45649;53.014;6.600;2022-07-25T11:02:05;2.73;;;1.90;;
59770;SDS011;45649;53.014;6.600;2022-07-25T11:04:33;2.73;;;1.80;;
59770;SDS011;45649;53.014;6.600;2022-07-25T11:07:12;1.97;;;1.63;;
59770;SDS011;45649;53.014;6.600;2022-07-25T11:09:40;1.80;;;1.70;;
59770;SDS011;45649;53.014;6.600;2022-07-25T11:12:08;2.47;;;2.00;;
59770;SDS011;45649;53.014;6.600;2022-07-25T11:14:38;2.73;;;2.03;;
59770;SDS011;45649;53.014;6.600;2022-07-25T11:17:17;3.40;;;2.00;;
59770;SDS011;45649;53.014;6.600;2022-07-25T11:19:57;4.17;;;2.20;;
59770;SDS011;45649;53.014;6.600;2022-07-25T11:22:27;2.80;;;1.90;;
59770;SDS011;45649;53.014;6.600;2022-07-25T11:24:54;3.00;;;2.10;;
59770;SDS011;45649;53.014;6.600;2022-07-25T11:27:28;3.40;;;2.20;;
59770;SDS011;45649;53.014;6.600;2022-07-25T11:30:15;2.93;;;2.10;;
59770;SDS011;45649;53.014;6.600;2022-07-25T11:32:49;4.10;;;2.43;;
59770;SDS011;45649;53.014;6.600;2022-07-25T11:35:24;2.80;;;2.20;;
59770;SDS011;45649;53.014;6.600;2022-07-25T11:37:54;4.60;;;2.10;;
59770;SDS011;45649;53.014;6.600;2022-07-25T11:40:21;3.30;;;1.93;;
59770;SDS011;45649;53.014;6.600;2022-07-25T11:42:49;4.30;;;2.20;;
59770;SDS011;45649;53.014;6.600;2022-07-25T11:45:17;3.13;;;1.70;;
59770;SDS011;45649;53.014;6.600;2022-07-25T11:47:48;4.40;;;1.90;;
59770;SDS011;45649;53.014;6.600;2022-07-25T11:50:29;4.87;;;2.40;;
59770;SDS011;45649;53.014;6.600;2022-07-25T11:52:59;5.97;;;2.20;;
59770;SDS011;45649;53.014;6.600;2022-07-25T11:55:28;3.33;;;2.20;;
59770;SDS011;45649;53.014;6.600;2022-07-25T11:58:01;8.60;;;2.20;;
59770;SDS011;45649;53.014;6.600;2022-07-25T12:00:28;3.50;;;1.90;;
59770;SDS011;45649;53.014;6.600;2022-07-25T12:03:03;3.87;;;2.30;;
59770;SDS011;45649;53.014;6.600;2022-07-25T12:05:32;4.57;;;2.60;;
59770;SDS011;45649;53.014;6.600;2022-07-25T12:08:06;3.73;;;2.17;;
59770;SDS011;45649;53.014;6.600;2022-07-25T12:10:36;4.70;;;2.40;;
59770;SDS011;45649;53.014;6.600;2022-07-25T12:13:04;4.83;;;2.20;;
59770;SDS011;45649;53.014;6.600;2022-07-25T12:15:36;6.60;;;2.30;;
59770;SDS011;45649;53.014;6.600;2022-07-25T12:18:06;4.90;;;2.17;;
59770;SDS011;45649;53.014;6.600;2022-07-25T12:20:41;4.43;;;2.10;;
59770;SDS011;45649;53.014;6.600;2022-07-25T12:23:08;3.37;;;1.83;;
59770;SDS011;45649;53.014;6.600;2022-07-25T12:25:41;2.80;;;1.70;;
59770;SDS011;45649;53.014;6.600;2022-07-25T12:28:09;2.87;;;1.47;;
59770;SDS011;45649;53.014;6.600;2022-07-25T12:30:36;2.50;;;1.40;;
59770;SDS011;45649;53.014;6.600;2022-07-25T12:33:03;2.60;;;1.77;;
59770;SDS011;45649;53.014;6.600;2022-07-25T12:35:30;6.00;;;2.20;;
59770;SDS011;45649;53.014;6.600;2022-07-25T12:37:56;2.97;;;2.00;;
59770;SDS011;45649;53.014;6.600;2022-07-25T12:40:22;4.77;;;2.40;;
59770;SDS011;45649;53.014;6.600;2022-07-25T12:42:48;4.87;;;1.90;;
59770;SDS011;45649;53.014;6.600;2022-07-25T12:45:15;4.30;;;1.93;;
59770;SDS011;45649;53.014;6.600;2022-07-25T12:47:42;6.33;;;1.93;;
59770;SDS011;45649;53.014;6.600;2022-07-25T12:50:09;4.27;;;1.90;;
59770;SDS011;45649;53.014;6.600;2022-07-25T12:52:35;4.33;;;2.00;;
59770;SDS011;45649;53.014;6.600;2022-07-25T12:55:02;3.63;;;1.80;;
59770;SDS011;45649;53.014;6.600;2022-07-25T12:57:29;2.67;;;1.77;;
59770;SDS011;45649;53.014;6.600;2022-07-25T12:59:55;4.13;;;1.77;;
59770;SDS011;45649;53.014;6.600;2022-07-25T13:02:22;5.03;;;1.80;;
59770;SDS011;45649;53.014;6.600;2022-07-25T13:04:48;3.53;;;1.53;;
59770;SDS011;45649;53.014;6.600;2022-07-25T13:07:14;4.23;;;1.90;;
59770;SDS011;45649;53.014;6.600;2022-07-25T13:09:41;3.20;;;1.80;;
59770;SDS011;45649;53.014;6.600;2022-07-25T13:12:06;4.87;;;1.90;;
59770;SDS011;45649;53.014;6.600;2022-07-25T13:14:32;3.73;;;1.70;;
59770;SDS011;45649;53.014;6.600;2022-07-25T13:16:59;4.37;;;1.93;;
59770;SDS011;45649;53.014;6.600;2022-07-25T13:19:25;3.17;;;1.80;;
59770;SDS011;45649;53.014;6.600;2022-07-25T13:21:51;2.77;;;1.60;;
59770;SDS011;45649;53.014;6.600;2022-07-25T13:24:18;2.80;;;1.60;;
59770;SDS011;45649;53.014;6.600;2022-07-25T13:26:44;3.10;;;1.70;;
59770;SDS011;45649;53.014;6.600;2022-07-25T13:29:10;3.80;;;1.80;;
59770;SDS011;45649;53.014;6.600;2022-07-25T13:31:36;4.50;;;1.83;;
59770;SDS011;45649;53.014;6.600;2022-07-25T13:34:03;5.50;;;1.90;;
59770;SDS011;45649;53.014;6.600;2022-07-25T13:36:30;3.37;;;1.70;;
59770;SDS011;45649;53.014;6.600;2022-07-25T13:38:57;3.10;;;1.77;;
59770;SDS011;45649;53.014;6.600;2022-07-25T13:41:23;4.27;;;1.93;;
59770;SDS011;45649;53.014;6.600;2022-07-25T13:43:49;2.73;;;1.80;;
59770;SDS011;45649;53.014;6.600;2022-07-25T13:46:14;4.00;;;2.00;;
59770;SDS011;45649;53.014;6.600;2022-07-25T13:48:40;2.37;;;1.70;;
59770;SDS011;45649;53.014;6.600;2022-07-25T13:51:06;3.10;;;1.60;;
59770;SDS011;45649;53.014;6.600;2022-07-25T13:53:32;4.07;;;1.80;;
59770;SDS011;45649;53.014;6.600;2022-07-25T13:55:58;6.03;;;1.90;;
59770;SDS011;45649;53.014;6.600;2022-07-25T13:58:24;3.77;;;1.60;;
59770;SDS011;45649;53.014;6.600;2022-07-25T14:00:51;3.37;;;1.90;;
59770;SDS011;45649;53.014;6.600;2022-07-25T14:03:17;3.83;;;1.90;;
59770;SDS011;45649;53.014;6.600;2022-07-25T14:05:43;2.90;;;1.77;;
59770;SDS011;45649;53.014;6.600;2022-07-25T14:08:09;2.40;;;1.50;;
59770;SDS011;45649;53.014;6.600;2022-07-25T14:10:36;5.00;;;2.00;;
59770;SDS011;45649;53.014;6.600;2022-07-25T14:13:02;4.03;;;2.00;;
59770;SDS011;45649;53.014;6.600;2022-07-25T14:15:28;3.67;;;2.10;;
59770;SDS011;45649;53.014;6.600;2022-07-25T14:17:55;4.70;;;2.20;;
59770;SDS011;45649;53.014;6.600;2022-07-25T14:20:21;4.37;;;2.10;;
59770;SDS011;45649;53.014;6.600;2022-07-25T14:22:48;6.90;;;2.60;;
59770;SDS011;45649;53.014;6.600;2022-07-25T14:25:14;4.83;;;2.20;;
59770;SDS011;45649;53.014;6.600;2022-07-25T14:27:40;6.37;;;2.37;;
59770;SDS011;45649;53.014;6.600;2022-07-25T14:30:07;5.17;;;2.63;;
59770;SDS011;45649;53.014;6.600;2022-07-25T14:32:33;6.90;;;2.57;;
59770;SDS011;45649;53.014;6.600;2022-07-25T14:34:59;4.83;;;2.47;;
59770;SDS011;45649;53.014;6.600;2022-07-25T14:37:26;6.23;;;2.50;;
59770;SDS011;45649;53.014;6.600;2022-07-25T14:39:55;5.63;;;2.70;;
59770;SDS011;45649;53.014;6.600;2022-07-25T14:42:25;5.10;;;2.83;;
59770;SDS011;45649;53.014;6.600;2022-07-25T14:44:51;5.07;;;2.40;;
59770;SDS011;45649;53.014;6.600;2022-07-25T14:47:16;4.73;;;2.00;;
59770;SDS011;45649;53.014;6.600;2022-07-25T14:49:42;5.20;;;2.03;;